Flight Number: EUR1139 Duration: 1:15
Departure: Gatwick Airport (EGKK) at 06:00 Distance: 340 Nm
Arrival: Frankfurt Airport (EDDF) at 07:15 Equipment: A321

Weather Information
London / Gatwick Airport, United Kingdom (EGKK) 51-09N 000-11W 0M Sep 21, 2017 - 09:50 AM EDT / 2017.09.21 1350 UTC
Wind: from the SSW (200 degrees) at 10 MPH (9 KT) (direction variable):0
Visibility: greater than 7 mile(s):0
Sky conditions: mostly cloudy Temperature: 62 F (17 C) Dew Point: 53 F (12 C) Relative Humidity: 72% Pressure (altimeter): 29.94 in. Hg (1014 hPa)
ob: EGKK 211350Z 20009KT 150V230 9999 BKN021 BKN038 17/12 Q1014 cycle: 14
Sunrise: 05:50 Sunset: 17:57 (UTC)

Frankfurt / M-Flughafen, Germany (EDDF) 50-03N 008-36E 113M Sep 21, 2017 - 09:50 AM EDT / 2017.09.21 1350 UTC
Wind: Variable at 3 MPH (3 KT):0
Visibility: greater than 7 mile(s):0
Sky conditions: partly cloudy Temperature: 66 F (19 C) Dew Point: 46 F (8 C) Relative Humidity: 48% Pressure (altimeter): 30.12 in. Hg (1020 hPa)
ob: EDDF 211350Z VRB03KT 9999 FEW038 SCT250 19/08 Q1020 NOSIG cycle: 14
Sunrise: 05:15 Sunset: 17:22 (UTC)

TAF:2017/09/21 12:27 TAF TAF EDDF 211100Z 2112/2218 14004KT 9999 FEW035 BECMG 2117/2120 05005KT BECMG 2212/2215 20004KT

Previous Pireps for this route
Date Aircraft Flight time Fuel used Landing rate On time
2012-09-01A3211.2911999-413No
2012-10-01A32101.119490-285No
2012-11-20MD-8101.208416-671No
2013-03-09B74701.3310375-520Charter
2013-03-27MD-8101.198371-289No
2013-04-03B7771.3194480Charter
2013-07-27A32101.2710514-432Yes
2013-08-20B73701.3313449-96Charter
2013-09-25A3211,2010No
2013-11-13B7771.20204570Charter
2013-12-15A32101.538971-437No
2014-01-19CRJ7001.1530220Charter
2014-03-12B7371.2081530No
2014-06-11B7371.2383000No
2014-08-21MD-8101.2510405-221Charter
2015-02-24MD-8101.108437-229Yes
2015-03-13MD-8101.128289-150Yes
2015-04-02A32101.288918-388No
2015-04-15B73701.275107-257Yes
2015-06-03MD-811.23125780No
2015-11-25A32101.399750-285Charter
2016-02-06B73701.2713290-425Yes
2016-03-18B73701.166641-161Yes
2016-04-03A32101.4110817-327.69No
2016-04-10A32101.398652-560.77No
2016-04-16A32101.398496-484.61No
2016-04-23B1900D01.381202-170Charter
2016-05-27B73701.2112082-236Yes
2016-07-23B73701.167571-179Charter
2016-09-12A32101.339503-422.31No
2016-09-12A32101.4510057-446.15No
2017-02-19B73701.337693-472Charter
2017-07-30MD-811.406793-1239No
2017-08-20B73701.207393-294Charter
(pireps marked green are flown by you)

Route map